createdAt,value
2022-07-30T00:01:23.845Z,55.25
2022-07-30T00:03:51.573Z,55.59
2022-07-30T00:06:18.402Z,55.13
2022-07-30T00:08:45.487Z,55.75
2022-07-30T00:11:12.991Z,56.12
2022-07-30T00:13:39.484Z,55.87
2022-07-30T00:16:06.017Z,55.61
2022-07-30T00:18:32.473Z,56.29
2022-07-30T00:21:01.229Z,57.12
2022-07-30T00:23:27.714Z,56.13
2022-07-30T00:25:54.213Z,57.17
2022-07-30T00:28:20.738Z,56.40
2022-07-30T00:30:47.211Z,56.86
2022-07-30T00:33:19.292Z,56.72
2022-07-30T00:35:45.972Z,56.72
2022-07-30T00:38:12.467Z,56.69
2022-07-30T00:40:40.115Z,56.42
2022-07-30T00:43:06.577Z,57.83
2022-07-30T00:45:34.398Z,57.30
2022-07-30T00:48:01.450Z,57.95
2022-07-30T00:50:27.915Z,56.60
2022-07-30T00:52:54.390Z,57.06
2022-07-30T00:55:20.848Z,57.24
2022-07-30T00:57:47.568Z,56.85
2022-07-30T01:00:16.578Z,56.03
2022-07-30T01:02:43.878Z,56.46
2022-07-30T01:05:10.769Z,56.50
2022-07-30T01:07:37.694Z,56.58
2022-07-30T01:10:05.977Z,56.67
2022-07-30T01:12:32.786Z,56.17
2022-07-30T01:15:02.808Z,56.00
2022-07-30T01:17:29.398Z,56.66
2022-07-30T01:20:01.772Z,56.62
2022-07-30T01:22:31.434Z,56.55
2022-07-30T01:25:04.149Z,57.10
2022-07-30T01:27:34.705Z,56.64
2022-07-30T01:30:04.694Z,57.15
2022-07-30T01:32:34.313Z,56.75
2022-07-30T01:35:02.349Z,56.87
2022-07-30T01:37:30.712Z,56.45
2022-07-30T01:39:58.583Z,56.36
2022-07-30T01:42:28.710Z,57.00
2022-07-30T01:44:57.349Z,57.06
2022-07-30T01:47:25.322Z,56.87
2022-07-30T01:49:54.643Z,56.93
2022-07-30T01:52:23.300Z,56.13
2022-07-30T01:54:52.413Z,57.28
2022-07-30T01:57:20.974Z,56.68
2022-07-30T01:59:50.570Z,56.92
2022-07-30T02:02:18.132Z,56.36
2022-07-30T02:04:44.946Z,56.79
2022-07-30T02:07:21.032Z,57.94
2022-07-30T02:09:59.503Z,57.22
2022-07-30T02:12:29.953Z,58.32
2022-07-30T02:15:02.432Z,57.19
2022-07-30T02:17:39.808Z,57.92
2022-07-30T02:20:14.334Z,57.17
2022-07-30T02:22:45.837Z,56.73
2022-07-30T02:25:17.381Z,57.23
2022-07-30T02:27:48.758Z,57.56
2022-07-30T02:30:15.569Z,58.47
2022-07-30T02:32:44.818Z,58.44
2022-07-30T02:35:18.876Z,57.18
2022-07-30T02:37:48.138Z,58.02
2022-07-30T02:40:16.855Z,57.61
2022-07-30T02:42:46.344Z,56.84
2022-07-30T02:45:15.861Z,57.10
2022-07-30T02:47:44.675Z,58.21
2022-07-30T02:50:13.201Z,58.17
2022-07-30T02:52:41.503Z,58.80
2022-07-30T02:55:12.285Z,58.16
2022-07-30T02:57:43.501Z,59.34
2022-07-30T03:00:11.791Z,58.26
2022-07-30T03:02:39.473Z,58.43
2022-07-30T03:05:08.673Z,58.83
2022-07-30T03:07:36.515Z,58.69
2022-07-30T03:10:05.237Z,58.81
2022-07-30T03:12:34.449Z,58.45
2022-07-30T03:15:01.316Z,58.86
2022-07-30T03:17:32.847Z,58.97
2022-07-30T03:20:01.099Z,58.68
2022-07-30T03:22:32.887Z,58.88
2022-07-30T03:24:59.996Z,58.72
2022-07-30T03:27:27.182Z,58.74
2022-07-30T03:29:55.640Z,59.89
2022-07-30T03:32:25.927Z,59.82
2022-07-30T03:34:54.446Z,59.73
2022-07-30T03:37:22.798Z,59.05
2022-07-30T03:39:49.402Z,60.16
2022-07-30T03:42:16.685Z,61.11
2022-07-30T03:44:45.789Z,61.01
2022-07-30T03:47:13.234Z,61.66
2022-07-30T03:49:41.284Z,61.67
2022-07-30T03:52:08.619Z,60.91
2022-07-30T03:54:35.727Z,62.23
2022-07-30T03:57:04.062Z,62.86
2022-07-30T03:59:31.302Z,61.43
2022-07-30T04:02:03.943Z,61.29
2022-07-30T04:04:33.455Z,61.14
2022-07-30T04:07:00.446Z,60.84
2022-07-30T04:09:27.173Z,62.50
2022-07-30T04:11:53.693Z,62.09
2022-07-30T04:14:20.261Z,61.24
2022-07-30T04:16:51.846Z,62.57
2022-07-30T04:19:24.316Z,61.81
2022-07-30T04:21:53.644Z,61.70
2022-07-30T04:24:21.052Z,61.37
2022-07-30T04:26:48.918Z,61.82
2022-07-30T04:29:18.187Z,60.60
2022-07-30T04:31:45.753Z,59.84
2022-07-30T04:34:15.426Z,61.06
2022-07-30T04:36:42.819Z,61.30
2022-07-30T04:39:10.103Z,61.26
2022-07-30T04:41:49.087Z,62.63
2022-07-30T04:44:20.392Z,62.68
2022-07-30T04:46:47.820Z,63.15
2022-07-30T04:49:17.428Z,62.23
2022-07-30T04:51:45.380Z,62.05
2022-07-30T04:54:15.530Z,61.94
2022-07-30T04:57:00.826Z,62.38
2022-07-30T04:59:27.703Z,62.83
2022-07-30T05:01:57.354Z,63.24
2022-07-30T05:04:25.219Z,62.92
2022-07-30T05:06:53.108Z,63.31
2022-07-30T05:09:19.995Z,63.51
2022-07-30T05:11:54.151Z,63.22
2022-07-30T05:14:21.909Z,63.63
2022-07-30T05:16:49.103Z,63.12
2022-07-30T05:19:16.005Z,62.81
2022-07-30T05:21:42.468Z,63.29
2022-07-30T05:24:09.017Z,63.38
2022-07-30T05:26:35.778Z,63.51
2022-07-30T05:29:02.924Z,63.26
2022-07-30T05:31:31.224Z,63.60
2022-07-30T05:34:03.023Z,63.73
2022-07-30T05:36:30.324Z,63.42
2022-07-30T05:38:56.801Z,63.29
2022-07-30T05:41:31.840Z,63.33
2022-07-30T05:43:59.236Z,62.64
2022-07-30T05:46:26.011Z,63.21
2022-07-30T05:48:52.669Z,63.27
2022-07-30T05:51:20.733Z,63.53
2022-07-30T05:53:47.285Z,63.50
2022-07-30T05:56:13.954Z,62.79
2022-07-30T05:58:40.531Z,62.32
2022-07-30T06:01:07.097Z,62.02
2022-07-30T06:03:34.800Z,61.93
2022-07-30T06:06:04.293Z,61.94
2022-07-30T06:08:31.013Z,61.73
2022-07-30T06:10:57.629Z,61.43
2022-07-30T06:13:24.594Z,61.49
2022-07-30T06:15:51.223Z,62.22
2022-07-30T06:18:17.765Z,61.70
2022-07-30T06:20:45.110Z,61.45
2022-07-30T06:23:12.192Z,60.93
2022-07-30T06:25:39.314Z,60.94
2022-07-30T06:28:34.727Z,63.01
2022-07-30T06:30:54.181Z,60.64
2022-07-30T06:33:20.717Z,61.89
2022-07-30T06:35:48.857Z,61.51
2022-07-30T06:38:15.427Z,59.96
2022-07-30T06:40:41.906Z,60.17
2022-07-30T06:43:08.392Z,61.65
2022-07-30T06:45:34.882Z,60.53
2022-07-30T06:48:01.618Z,61.44
2022-07-30T06:50:28.186Z,60.93
2022-07-30T06:52:54.824Z,59.01
2022-07-30T06:55:21.421Z,58.82
2022-07-30T06:57:47.939Z,58.02
2022-07-30T07:00:14.823Z,58.24
2022-07-30T07:02:42.679Z,59.44
2022-07-30T07:05:09.742Z,58.58
2022-07-30T07:07:42.978Z,58.65
2022-07-30T07:10:13.021Z,56.83
2022-07-30T07:12:39.544Z,56.75
2022-07-30T07:15:06.791Z,58.05
2022-07-30T07:17:33.291Z,56.71
2022-07-30T07:20:02.645Z,57.00
2022-07-30T07:22:30.081Z,56.75
2022-07-30T07:24:56.557Z,55.71
2022-07-30T07:27:23.575Z,57.12
2022-07-30T07:30:01.355Z,56.20
2022-07-30T07:32:31.769Z,54.93
2022-07-30T07:34:58.252Z,55.14
2022-07-30T07:37:24.706Z,56.25
2022-07-30T07:39:51.234Z,54.90
2022-07-30T07:42:17.743Z,56.09
2022-07-30T07:44:44.282Z,53.46
2022-07-30T07:47:10.813Z,54.71
2022-07-30T07:49:37.296Z,55.69
2022-07-30T07:52:03.977Z,54.13
2022-07-30T07:54:30.570Z,54.09
2022-07-30T07:56:57.189Z,53.69
2022-07-30T07:59:27.789Z,52.80
2022-07-30T08:02:07.962Z,53.76
2022-07-30T08:04:35.375Z,53.72
2022-07-30T08:07:02.571Z,54.29
2022-07-30T08:09:43.520Z,51.46
2022-07-30T08:12:11.867Z,52.97
2022-07-30T08:14:38.418Z,52.30
2022-07-30T08:17:05.541Z,53.05
2022-07-30T08:19:32.577Z,53.23
2022-07-30T08:21:59.720Z,52.40
2022-07-30T08:24:26.956Z,54.56
2022-07-30T08:26:53.661Z,50.75
2022-07-30T08:29:20.241Z,53.30
2022-07-30T08:31:46.818Z,51.51
2022-07-30T08:34:13.667Z,53.18
2022-07-30T08:36:43.708Z,53.25
2022-07-30T08:39:10.757Z,54.38
2022-07-30T08:41:37.538Z,53.64
2022-07-30T08:44:12.833Z,52.23
2022-07-30T08:46:46.897Z,51.88
2022-07-30T08:49:15.071Z,51.91
2022-07-30T08:51:42.146Z,51.95
2022-07-30T08:54:09.133Z,50.97
2022-07-30T08:56:35.649Z,53.30
2022-07-30T08:59:02.579Z,51.91
2022-07-30T09:01:29.209Z,51.64
2022-07-30T09:03:55.743Z,51.95
2022-07-30T09:06:22.360Z,51.49
2022-07-30T09:08:49.310Z,53.24
2022-07-30T09:11:16.191Z,50.99
2022-07-30T09:13:44.529Z,51.56
2022-07-30T09:16:23.015Z,50.45
2022-07-30T09:18:50.818Z,53.52
2022-07-30T09:21:21.439Z,54.13
2022-07-30T09:24:17.101Z,51.31
2022-07-30T09:26:56.010Z,51.35
2022-07-30T09:29:25.231Z,49.75
2022-07-30T09:31:57.278Z,49.74
2022-07-30T09:34:25.863Z,48.62
2022-07-30T09:36:52.430Z,48.93
2022-07-30T09:39:31.680Z,51.28
2022-07-30T09:41:58.715Z,52.12
2022-07-30T09:44:27.637Z,53.08
2022-07-30T09:46:54.244Z,50.26
2022-07-30T09:49:22.994Z,48.89
2022-07-30T09:51:59.494Z,50.60
2022-07-30T09:54:51.779Z,49.21
2022-07-30T09:57:26.708Z,48.61
2022-07-30T10:00:01.259Z,46.89
2022-07-30T10:02:32.853Z,48.05
2022-07-30T10:05:15.101Z,47.75
2022-07-30T10:07:52.859Z,47.19
2022-07-30T10:10:25.583Z,49.96
2022-07-30T10:12:56.954Z,46.90
2022-07-30T10:15:25.266Z,50.23
2022-07-30T10:17:54.597Z,48.08
2022-07-30T10:20:21.424Z,46.49
2022-07-30T10:22:49.401Z,48.13
2022-07-30T10:25:20.838Z,49.39
2022-07-30T10:27:50.323Z,44.54
2022-07-30T10:30:27.608Z,43.92
2022-07-30T10:32:56.708Z,46.65
2022-07-30T10:35:34.602Z,46.96
2022-07-30T10:38:13.461Z,44.28
2022-07-30T10:40:48.668Z,43.77
2022-07-30T10:43:33.667Z,44.74
2022-07-30T10:46:10.731Z,44.94
2022-07-30T10:48:51.494Z,46.24
2022-07-30T10:51:34.486Z,45.66
2022-07-30T10:54:01.482Z,45.57
2022-07-30T10:56:28.063Z,45.51
2022-07-30T10:59:10.093Z,43.85
2022-07-30T11:01:53.360Z,42.44
2022-07-30T11:04:29.762Z,43.44
2022-07-30T11:07:21.203Z,44.49
2022-07-30T11:09:49.793Z,43.53
2022-07-30T11:12:41.494Z,42.20
2022-07-30T11:15:18.751Z,43.82
2022-07-30T11:18:12.117Z,44.70
2022-07-30T11:20:40.651Z,43.07
2022-07-30T11:23:16.274Z,42.54
2022-07-30T11:25:51.554Z,42.91
2022-07-30T11:28:49.150Z,43.98
2022-07-30T11:31:54.926Z,42.79
2022-07-30T11:34:24.086Z,44.07
2022-07-30T11:37:18.567Z,42.39
2022-07-30T11:39:55.242Z,43.75
2022-07-30T11:42:35.454Z,42.60
2022-07-30T11:45:18.453Z,44.54
2022-07-30T11:47:47.587Z,43.97
2022-07-30T11:50:34.652Z,43.91
2022-07-30T11:53:05.114Z,43.74
2022-07-30T11:55:35.862Z,42.82
2022-07-30T11:58:11.303Z,41.90
2022-07-30T12:00:41.975Z,43.82
2022-07-30T12:03:13.761Z,43.18
2022-07-30T12:05:41.348Z,43.30
2022-07-30T12:08:31.614Z,42.26
2022-07-30T12:11:01.261Z,43.16
2022-07-30T12:13:43.592Z,44.06
2022-07-30T12:16:19.179Z,43.79
2022-07-30T12:18:47.288Z,43.39
2022-07-30T12:21:17.787Z,42.71
2022-07-30T12:24:01.285Z,42.50
2022-07-30T12:26:30.698Z,41.92
2022-07-30T12:29:13.384Z,41.68
2022-07-30T12:31:41.339Z,43.01
2022-07-30T12:34:24.520Z,42.60
2022-07-30T12:36:51.577Z,43.15
2022-07-30T12:39:23.662Z,43.13
2022-07-30T12:41:52.328Z,42.15
2022-07-30T12:44:41.896Z,41.29
2022-07-30T12:47:23.919Z,41.98
2022-07-30T12:49:53.450Z,43.60
2022-07-30T12:52:31.284Z,43.84
2022-07-30T12:55:04.593Z,45.31
2022-07-30T12:58:07.158Z,42.35
2022-07-30T13:00:44.001Z,42.86
2022-07-30T13:03:24.208Z,42.94
2022-07-30T13:05:55.376Z,41.97
2022-07-30T13:08:47.921Z,42.40
2022-07-30T13:11:15.554Z,42.34
2022-07-30T13:13:42.306Z,40.24
2022-07-30T13:16:08.856Z,42.36
2022-07-30T13:18:36.690Z,41.65
2022-07-30T13:21:05.139Z,41.96
2022-07-30T13:23:32.193Z,40.91
2022-07-30T13:25:58.879Z,40.01
2022-07-30T13:28:25.674Z,40.40
2022-07-30T13:30:52.458Z,40.39
2022-07-30T13:33:18.966Z,40.82
2022-07-30T13:35:47.188Z,40.89
2022-07-30T13:38:13.722Z,39.83
2022-07-30T13:40:41.013Z,40.59
2022-07-30T13:43:08.029Z,40.46
2022-07-30T13:45:34.989Z,41.85
2022-07-30T13:48:01.917Z,40.30
2022-07-30T13:50:28.568Z,40.17
2022-07-30T13:52:58.858Z,39.73
2022-07-30T13:55:28.848Z,39.62
2022-07-30T13:57:55.377Z,41.34
2022-07-30T14:00:23.208Z,41.40
2022-07-30T14:02:49.786Z,43.14
2022-07-30T14:05:16.533Z,41.66
2022-07-30T14:07:43.198Z,42.61
2022-07-30T14:10:09.719Z,41.60
2022-07-30T14:12:36.328Z,40.97
2022-07-30T14:15:03.071Z,40.87
2022-07-30T14:17:29.538Z,40.82
2022-07-30T14:19:56.290Z,39.62
2022-07-30T14:22:23.325Z,39.50
2022-07-30T14:24:49.929Z,39.47
2022-07-30T14:27:19.715Z,40.75
2022-07-30T14:29:48.608Z,41.35
2022-07-30T14:32:15.109Z,42.62
2022-07-30T14:34:41.635Z,40.79
2022-07-30T14:37:16.227Z,40.84
2022-07-30T14:39:42.715Z,41.34
2022-07-30T14:42:09.206Z,42.38
2022-07-30T14:44:35.736Z,40.66
2022-07-30T14:47:02.770Z,40.93
2022-07-30T14:49:29.761Z,40.75
2022-07-30T14:51:56.261Z,40.33
2022-07-30T14:54:23.209Z,40.38
2022-07-30T14:56:52.562Z,39.45
2022-07-30T14:59:21.444Z,40.48
2022-07-30T15:01:47.999Z,40.59
2022-07-30T15:04:14.892Z,41.29
2022-07-30T15:06:41.914Z,39.77
2022-07-30T15:09:09.010Z,40.09
2022-07-30T15:12:04.411Z,41.13
2022-07-30T15:14:22.615Z,39.83
2022-07-30T15:16:51.326Z,40.31
2022-07-30T15:19:17.822Z,43.01
2022-07-30T15:21:44.849Z,40.36
2022-07-30T15:24:11.345Z,40.13
2022-07-30T15:26:37.806Z,41.04
2022-07-30T15:29:04.272Z,41.58
2022-07-30T15:31:30.741Z,40.90
2022-07-30T15:33:57.273Z,41.13
2022-07-30T15:36:23.900Z,40.95
2022-07-30T15:38:50.349Z,41.33
2022-07-30T15:41:18.019Z,42.29
2022-07-30T15:43:44.489Z,41.21
2022-07-30T15:46:11.051Z,40.91
2022-07-30T15:48:37.825Z,39.99
2022-07-30T15:51:05.118Z,40.06
2022-07-30T15:53:32.988Z,41.10
2022-07-30T15:56:00.606Z,40.03
2022-07-30T15:58:27.144Z,40.76
2022-07-30T16:00:53.816Z,40.69
2022-07-30T16:03:20.454Z,41.20
2022-07-30T16:05:51.684Z,42.88
2022-07-30T16:08:19.869Z,41.47
2022-07-30T16:10:46.455Z,43.22
2022-07-30T16:13:13.053Z,44.27
2022-07-30T16:15:39.728Z,42.04
2022-07-30T16:18:06.377Z,40.67
2022-07-30T16:20:32.932Z,43.12
2022-07-30T16:22:59.778Z,43.56
2022-07-30T16:25:26.833Z,44.90
2022-07-30T16:27:53.331Z,43.90
2022-07-30T16:30:20.131Z,43.82
2022-07-30T16:32:46.717Z,44.17
2022-07-30T16:35:13.596Z,43.28
2022-07-30T16:37:40.505Z,43.56
2022-07-30T16:40:07.446Z,44.31
2022-07-30T16:42:33.896Z,42.25
2022-07-30T16:45:00.399Z,44.49
2022-07-30T16:47:26.912Z,44.51
2022-07-30T16:50:00.280Z,43.90
2022-07-30T16:52:26.878Z,45.34
2022-07-30T16:54:54.199Z,45.05
2022-07-30T16:57:21.058Z,44.72
2022-07-30T16:59:47.747Z,45.47
2022-07-30T17:02:14.271Z,45.47
2022-07-30T17:04:41.651Z,45.53
2022-07-30T17:07:08.390Z,45.40
2022-07-30T17:09:36.994Z,44.92
2022-07-30T17:12:06.260Z,46.10
2022-07-30T17:14:40.395Z,44.95
2022-07-30T17:17:10.769Z,46.05
2022-07-30T17:19:40.074Z,45.68
2022-07-30T17:22:06.763Z,46.46
2022-07-30T17:24:33.235Z,47.39
2022-07-30T17:26:59.889Z,47.84
2022-07-30T17:29:26.438Z,47.32
2022-07-30T17:31:52.917Z,48.56
2022-07-30T17:34:22.096Z,48.44
2022-07-30T17:36:52.493Z,48.78
2022-07-30T17:40:04.055Z,48.74
2022-07-30T17:42:09.416Z,48.75
2022-07-30T17:44:36.582Z,48.37
2022-07-30T17:47:03.312Z,47.96
2022-07-30T17:49:29.994Z,48.68
2022-07-30T17:51:56.882Z,49.54
2022-07-30T17:54:23.509Z,49.03
2022-07-30T17:56:50.144Z,50.13
2022-07-30T17:59:16.712Z,50.30
2022-07-30T18:01:43.339Z,50.09
2022-07-30T18:04:10.041Z,51.63
2022-07-30T18:06:36.813Z,51.24
2022-07-30T18:09:05.315Z,52.93
2022-07-30T18:11:32.288Z,53.28
2022-07-30T18:13:58.949Z,54.18
2022-07-30T18:16:26.216Z,54.69
2022-07-30T18:18:52.846Z,54.66
2022-07-30T18:21:19.398Z,54.55
2022-07-30T18:23:46.015Z,56.08
2022-07-30T18:26:12.707Z,57.37
2022-07-30T18:28:41.061Z,57.73
2022-07-30T18:31:07.591Z,56.46
2022-07-30T18:33:34.126Z,57.33
2022-07-30T18:36:00.880Z,58.01
2022-07-30T18:38:27.492Z,58.63
2022-07-30T18:41:00.005Z,57.94
2022-07-30T18:43:29.160Z,58.24
2022-07-30T18:45:57.838Z,57.85
2022-07-30T18:48:25.046Z,58.20
2022-07-30T18:50:52.986Z,59.01
2022-07-30T18:53:19.988Z,58.16
2022-07-30T18:55:47.433Z,59.14
2022-07-30T18:58:14.067Z,59.61
2022-07-30T19:00:44.073Z,60.25
2022-07-30T19:03:16.296Z,60.38
2022-07-30T19:05:43.227Z,59.61
2022-07-30T19:08:10.326Z,59.43
2022-07-30T19:10:37.483Z,57.17
2022-07-30T19:13:04.420Z,56.98
2022-07-30T19:15:31.039Z,57.74
2022-07-30T19:17:58.559Z,57.42
2022-07-30T19:20:26.533Z,57.70
2022-07-30T19:23:04.586Z,59.92
2022-07-30T19:25:33.150Z,59.63
2022-07-30T19:28:01.417Z,60.06
2022-07-30T19:30:32.256Z,59.93
2022-07-30T19:33:14.701Z,60.99
2022-07-30T19:35:42.703Z,60.14
2022-07-30T19:38:14.357Z,61.96
2022-07-30T19:40:48.785Z,62.09
2022-07-30T19:43:15.917Z,63.40
2022-07-30T19:45:47.204Z,62.68
2022-07-30T19:48:15.126Z,63.98
2022-07-30T19:50:55.871Z,63.85
2022-07-30T19:53:22.381Z,64.12
2022-07-30T19:55:48.928Z,65.35
2022-07-30T19:58:18.963Z,65.50
2022-07-30T20:00:49.292Z,65.90
2022-07-30T20:03:16.715Z,66.57
2022-07-30T20:05:57.552Z,66.40
2022-07-30T20:08:26.978Z,66.68
2022-07-30T20:10:53.593Z,67.19
2022-07-30T20:13:25.300Z,67.31
2022-07-30T20:16:12.235Z,67.07
2022-07-30T20:18:39.607Z,67.34
2022-07-30T20:21:08.370Z,68.12
2022-07-30T20:23:39.663Z,68.17
2022-07-30T20:26:12.449Z,69.46
2022-07-30T20:28:44.933Z,69.25
2022-07-30T20:31:12.534Z,69.01
2022-07-30T20:33:40.054Z,68.71
2022-07-30T20:36:09.968Z,68.71
2022-07-30T20:38:38.995Z,69.02
2022-07-30T20:41:09.940Z,68.74
2022-07-30T20:43:46.215Z,69.30
2022-07-30T20:46:23.134Z,69.76
2022-07-30T20:49:08.261Z,69.46
2022-07-30T20:51:37.808Z,69.95
2022-07-30T20:54:04.530Z,69.82
2022-07-30T20:56:31.079Z,70.38
2022-07-30T20:58:57.553Z,69.12
2022-07-30T21:01:24.084Z,69.38
2022-07-30T21:03:50.692Z,69.28
2022-07-30T21:06:17.263Z,68.83
2022-07-30T21:08:43.826Z,65.67
2022-07-30T21:11:10.372Z,65.75
2022-07-30T21:13:39.467Z,66.22
2022-07-30T21:16:15.709Z,66.63
2022-07-30T21:18:54.570Z,67.77
2022-07-30T21:21:29.118Z,68.21
2022-07-30T21:24:12.289Z,69.54
2022-07-30T21:26:42.403Z,69.76
2022-07-30T21:29:09.664Z,70.51
2022-07-30T21:31:59.046Z,69.90
2022-07-30T21:34:26.124Z,70.53
2022-07-30T21:36:53.518Z,71.36
2022-07-30T21:39:20.102Z,71.12
2022-07-30T21:41:55.749Z,70.32
2022-07-30T21:44:22.356Z,70.33
2022-07-30T21:46:50.431Z,71.51
2022-07-30T21:49:17.325Z,71.50
2022-07-30T21:51:44.486Z,71.50
2022-07-30T21:54:11.167Z,72.65
2022-07-30T21:56:41.644Z,72.33
2022-07-30T21:59:08.568Z,73.09
2022-07-30T22:01:38.697Z,72.42
2022-07-30T22:06:54.550Z,72.59
2022-07-30T22:12:10.263Z,72.77
2022-07-30T22:14:39.673Z,74.12
2022-07-30T22:17:14.782Z,74.72
2022-07-30T22:19:49.946Z,75.35
2022-07-30T22:22:26.134Z,74.64
2022-07-30T22:24:55.120Z,74.71
2022-07-30T22:27:23.647Z,75.19
2022-07-30T22:29:50.127Z,74.76
2022-07-30T22:32:16.870Z,76.51
2022-07-30T22:34:44.907Z,74.65
2022-07-30T22:39:58.178Z,74.78
2022-07-30T22:42:24.959Z,75.07
2022-07-30T22:44:54.852Z,75.17
2022-07-30T22:47:52.634Z,75.80
2022-07-30T22:50:09.738Z,74.50
2022-07-30T22:52:49.068Z,75.65
2022-07-30T22:55:22.762Z,74.34
2022-07-30T22:57:50.231Z,74.29
2022-07-30T23:03:04.887Z,74.87
2022-07-30T23:05:35.203Z,73.65
2022-07-30T23:08:02.898Z,74.69
2022-07-30T23:10:29.591Z,74.87
2022-07-30T23:12:28.377Z,73.53
2022-07-30T23:12:30.877Z,74.20
2022-07-30T23:12:31.871Z,73.91
2022-07-30T23:12:32.757Z,75.13
2022-07-30T23:12:56.295Z,75.20
2022-07-30T23:15:23.097Z,75.33
2022-07-30T23:17:49.615Z,74.65
2022-07-30T23:20:18.574Z,75.52
2022-07-30T23:22:45.086Z,76.06
2022-07-30T23:25:12.639Z,75.57
2022-07-30T23:27:39.660Z,76.13
2022-07-30T23:30:10.566Z,76.13
2022-07-30T23:32:38.015Z,75.43
2022-07-30T23:35:05.957Z,76.29
2022-07-30T23:37:37.865Z,76.76
2022-07-30T23:40:15.469Z,76.26
2022-07-30T23:42:41.927Z,75.88
2022-07-30T23:45:08.675Z,75.85
2022-07-30T23:47:56.505Z,75.39
2022-07-30T23:50:22.180Z,76.34
2022-07-30T23:52:48.636Z,75.24
2022-07-30T23:55:15.208Z,75.43
2022-07-30T23:57:42.283Z,76.34
